Time;durP1;ratioP1;P1;durP2;ratioP2;P2;SDS_P1;SDS_P2;PMS_P1;PMS_P2;Temp;Humidity;BMP_temperature;BMP_pressure;BME280_temperature;BME280_humidity;BME280_pressure;Samples;Min_cycle;Max_cycle;Signal;HPM_P1;HPM_P2
2021/12/18 00:00:22;;;;;;;25.17;14.95;;;4.50;99.90;;;;;;4962283;28;89016;-79
2021/12/18 00:02:48;;;;;;;32.65;20.83;;;4.50;99.90;;;;;;4961346;28;89732;-79
2021/12/18 00:05:14;;;;;;;31.05;18.95;;;4.50;99.90;;;;;;4961682;28;88939;-79
2021/12/18 00:07:39;;;;;;;27.38;15.50;;;4.50;99.90;;;;;;4944268;28;89403;-80
2021/12/18 00:10:06;;;;;;;25.25;15.13;;;4.40;99.90;;;;;;4962094;28;88879;-80
2021/12/18 00:12:31;;;;;;;30.75;17.90;;;4.40;99.90;;;;;;4962251;28;89147;-79
2021/12/18 00:14:57;;;;;;;32.47;18.92;;;4.40;99.90;;;;;;4962998;28;88910;-79
2021/12/18 00:17:22;;;;;;;26.55;15.68;;;4.40;99.90;;;;;;4962436;28;89091;-80
2021/12/18 00:19:48;;;;;;;25.92;15.20;;;4.40;99.90;;;;;;4962672;28;89950;-79
2021/12/18 00:22:13;;;;;;;26.50;14.43;;;4.40;99.90;;;;;;4969898;28;89388;-79
2021/12/18 00:24:39;;;;;;;26.02;14.65;;;4.40;99.90;;;;;;4983914;28;88179;-80
2021/12/18 00:27:05;;;;;;;25.23;15.40;;;4.40;99.90;;;;;;4971541;28;88337;-79
2021/12/18 00:29:30;;;;;;;24.08;14.77;;;4.40;99.90;;;;;;4959764;28;89916;-79
2021/12/18 05:01:13;;;;;;;28.15;15.48;;;3.90;99.90;;;;;;5605564;22;91996;-78
2021/12/18 05:03:40;;;;;;;29.83;16.02;;;3.90;99.90;;;;;;4996902;28;90494;-78
2021/12/18 05:06:05;;;;;;;26.13;14.73;;;4.00;99.90;;;;;;4979200;28;89442;-79
2021/12/18 05:08:31;;;;;;;27.85;15.45;;;3.90;99.90;;;;;;4997753;28;89041;-79
2021/12/18 05:10:57;;;;;;;25.27;13.60;;;4.00;99.90;;;;;;4972613;28;91694;-79
2021/12/18 05:13:22;;;;;;;25.05;14.23;;;3.90;99.90;;;;;;4977681;28;90199;-79
2021/12/18 05:15:48;;;;;;;27.23;14.70;;;4.00;99.90;;;;;;4976560;28;90329;-78
2021/12/18 05:18:13;;;;;;;27.00;14.40;;;4.00;99.90;;;;;;4959120;28;92977;-78
2021/12/18 05:20:39;;;;;;;26.73;14.90;;;4.00;99.90;;;;;;4976559;28;90886;-79
2021/12/18 05:23:05;;;;;;;28.00;15.32;;;4.00;99.90;;;;;;4977078;28;90293;-78
2021/12/18 05:25:30;;;;;;;26.92;15.00;;;4.10;99.90;;;;;;4976898;28;89334;-78
2021/12/18 05:27:56;;;;;;;28.45;16.13;;;4.10;99.90;;;;;;4976995;28;89325;-78
2021/12/18 05:30:21;;;;;;;27.00;15.02;;;4.10;99.90;;;;;;4959005;28;91666;-78
2021/12/18 05:32:47;;;;;;;28.63;16.23;;;4.10;99.90;;;;;;4959379;28;91428;-78
2021/12/18 05:35:16;;;;;;;27.75;15.82;;;4.10;99.90;;;;;;4959045;28;89333;-79
2021/12/18 05:40:09;;;;;;;32.42;15.90;;;4.10;99.90;;;;;;4976305;28;90415;-78
2021/12/18 05:42:34;;;;;;;27.98;15.95;;;4.10;99.90;;;;;;4976365;28;89835;-78
2021/12/18 05:45:00;;;;;;;29.08;15.27;;;4.00;99.90;;;;;;4976368;28;89260;-78
2021/12/18 05:47:25;;;;;;;26.08;14.18;;;4.00;99.90;;;;;;4977036;28;89225;-78
2021/12/18 05:49:51;;;;;;;25.95;15.05;;;4.00;99.90;;;;;;4976848;28;90401;-79
2021/12/18 05:52:16;;;;;;;29.38;15.75;;;4.00;99.90;;;;;;4976639;28;90201;-78
2021/12/18 05:54:42;;;;;;;28.00;14.85;;;4.00;99.90;;;;;;4958588;28;89358;-78
2021/12/18 05:57:10;;;;;;;27.48;15.15;;;4.00;99.90;;;;;;4959444;28;91991;-78
2021/12/18 05:59:36;;;;;;;26.70;14.43;;;4.00;99.90;;;;;;4976894;28;90198;-78
2021/12/18 06:02:02;;;;;;;28.42;14.43;;;4.00;99.90;;;;;;4976274;28;91636;-79
2021/12/18 06:04:28;;;;;;;27.98;14.02;;;4.00;99.90;;;;;;4977171;28;90235;-79
2021/12/18 06:07:04;;;;;;;27.83;13.65;;;4.00;99.90;;;;;;4976739;28;89689;-78
2021/12/18 06:09:31;;;;;;;27.08;13.68;;;4.10;99.90;;;;;;4977775;28;90048;-78
2021/12/18 06:11:58;;;;;;;27.98;14.13;;;4.10;99.90;;;;;;4977681;28;91810;-78
2021/12/18 06:14:24;;;;;;;27.23;13.88;;;4.10;99.90;;;;;;4977648;28;89269;-78
2021/12/18 06:16:49;;;;;;;25.80;13.85;;;4.10;99.90;;;;;;4978819;28;89357;-78
2021/12/18 06:19:15;;;;;;;26.15;14.05;;;4.10;99.90;;;;;;4978031;28;89999;-78
2021/12/18 06:21:41;;;;;;;27.65;14.60;;;4.10;99.90;;;;;;4958998;28;92369;-78
2021/12/18 06:24:07;;;;;;;25.65;13.50;;;4.10;99.90;;;;;;4979578;28;89229;-78
2021/12/18 06:26:33;;;;;;;24.55;13.05;;;4.10;99.90;;;;;;4961695;28;92622;-79
2021/12/18 06:28:58;;;;;;;27.85;14.02;;;4.10;99.90;;;;;;4961140;28;92874;-78
2021/12/18 06:31:24;;;;;;;26.10;13.43;;;4.10;99.90;;;;;;4982576;28;90810;-78
2021/12/18 06:33:50;;;;;;;25.25;13.48;;;4.00;99.90;;;;;;4965463;28;89266;-79
2021/12/18 06:36:15;;;;;;;29.10;15.10;;;4.10;99.90;;;;;;4964441;28;92792;-78
2021/12/18 06:38:41;;;;;;;27.95;14.88;;;4.10;99.90;;;;;;4982866;28;89352;-80
2021/12/18 06:41:06;;;;;;;27.90;13.32;;;4.10;99.90;;;;;;4981571;28;89134;-80
2021/12/18 06:43:32;;;;;;;27.13;13.80;;;4.10;99.90;;;;;;4962431;28;89223;-79
2021/12/18 06:45:58;;;;;;;25.60;13.73;;;4.00;99.90;;;;;;4962737;28;91470;-79
2021/12/18 06:48:23;;;;;;;26.55;13.45;;;4.00;99.90;;;;;;4962010;28;91741;-79
2021/12/18 06:50:50;;;;;;;29.70;14.13;;;4.00;99.90;;;;;;4979265;28;89845;-80
2021/12/18 06:53:16;;;;;;;28.70;14.30;;;4.10;99.90;;;;;;4979334;28;90020;-80
2021/12/18 06:55:42;;;;;;;25.90;13.63;;;4.00;99.90;;;;;;4961317;28;91520;-79
2021/12/18 06:58:08;;;;;;;30.73;14.93;;;4.10;99.90;;;;;;4979597;28;89999;-79
2021/12/18 07:00:33;;;;;;;29.65;14.02;;;4.00;99.90;;;;;;4980409;28;89636;-79
2021/12/18 07:02:59;;;;;;;28.20;14.90;;;4.10;99.90;;;;;;4980879;28;89386;-79
2021/12/18 07:05:25;;;;;;;28.83;15.10;;;4.00;99.90;;;;;;4963012;28;91487;-79
2021/12/18 07:07:51;;;;;;;29.15;14.68;;;4.00;99.90;;;;;;4981004;28;90298;-79
2021/12/18 07:10:18;;;;;;;28.80;14.43;;;4.10;99.90;;;;;;4981296;28;88993;-79
2021/12/18 07:12:44;;;;;;;30.67;15.13;;;4.10;99.90;;;;;;4963394;28;89318;-79
2021/12/18 07:15:11;;;;;;;30.40;15.68;;;4.00;99.90;;;;;;4980420;28;90291;-79
2021/12/18 07:17:37;;;;;;;31.60;15.93;;;4.00;99.90;;;;;;4980011;28;90797;-79
2021/12/18 07:20:05;;;;;;;31.42;15.27;;;4.00;99.90;;;;;;4981301;28;91136;-79
2021/12/18 07:22:31;;;;;;;29.55;15.15;;;4.00;99.90;;;;;;4964420;28;89346;-80
2021/12/18 07:24:56;;;;;;;26.33;14.48;;;4.00;99.90;;;;;;4981797;28;91260;-80
2021/12/18 07:27:22;;;;;;;29.67;14.93;;;4.00;99.90;;;;;;4984187;28;89185;-79
2021/12/18 07:29:47;;;;;;;35.08;16.77;;;4.00;99.90;;;;;;5003362;28;89755;-79
2021/12/18 07:32:13;;;;;;;30.92;15.32;;;4.00;99.90;;;;;;4979371;28;88993;-79
2021/12/18 07:34:39;;;;;;;31.20;16.13;;;4.00;99.90;;;;;;4978976;28;90126;-79
2021/12/18 07:37:04;;;;;;;25.25;13.98;;;4.00;99.90;;;;;;4961372;28;91754;-79
2021/12/18 07:39:30;;;;;;;27.60;14.13;;;4.00;99.90;;;;;;4979247;28;89762;-79
2021/12/18 07:41:55;;;;;;;25.40;14.05;;;4.00;99.90;;;;;;4978317;28;90119;-79
2021/12/18 07:44:21;;;;;;;24.90;13.18;;;4.00;99.90;;;;;;4978789;28;90352;-79
2021/12/18 07:46:47;;;;;;;24.52;12.35;;;4.00;99.90;;;;;;4978718;28;89342;-79
2021/12/18 07:49:12;;;;;;;21.88;11.48;;;4.00;99.90;;;;;;4978746;28;90174;-80
2021/12/18 07:51:38;;;;;;;20.45;11.27;;;4.00;99.90;;;;;;4978528;28;89299;-79
2021/12/18 07:54:06;;;;;;;21.13;11.02;;;4.00;99.90;;;;;;4978202;28;90209;-79
2021/12/18 07:56:32;;;;;;;18.95;10.10;;;4.00;99.90;;;;;;4960262;28;92578;-79
2021/12/18 07:58:58;;;;;;;18.92;10.25;;;3.90;99.90;;;;;;4978390;28;88949;-79
2021/12/18 08:01:24;;;;;;;18.65;10.13;;;4.00;99.90;;;;;;4977617;28;89175;-79
2021/12/18 08:03:49;;;;;;;17.90;9.57;;;4.00;99.90;;;;;;4977059;28;89869;-79
2021/12/18 08:06:16;;;;;;;18.75;9.60;;;4.00;99.90;;;;;;4960772;28;93638;-79
2021/12/18 08:08:41;;;;;;;18.92;10.25;;;4.00;99.90;;;;;;4978860;28;89987;-79
2021/12/18 08:11:07;;;;;;;19.20;10.00;;;4.00;99.90;;;;;;4976228;28;89307;-79
2021/12/18 08:13:33;;;;;;;16.73;9.52;;;4.10;99.90;;;;;;4977120;28;89912;-79
2021/12/18 08:15:59;;;;;;;16.98;9.25;;;4.10;99.90;;;;;;4978400;28;91383;-78
2021/12/18 08:18:24;;;;;;;17.83;9.32;;;4.10;99.90;;;;;;4978861;28;92155;-79
2021/12/18 08:20:50;;;;;;;18.75;10.05;;;4.10;99.90;;;;;;4960785;28;89386;-80
2021/12/18 08:23:16;;;;;;;17.20;9.27;;;4.10;99.90;;;;;;4978945;28;88865;-79
2021/12/18 08:25:41;;;;;;;14.90;8.88;;;4.10;99.90;;;;;;4960188;28;92483;-78
2021/12/18 08:28:07;;;;;;;14.18;8.27;;;4.20;99.90;;;;;;4961253;28;92268;-78
2021/12/18 08:30:35;;;;;;;15.70;8.32;;;4.20;99.90;;;;;;4978325;28;90317;-81
2021/12/18 08:33:02;;;;;;;13.90;8.20;;;4.20;99.90;;;;;;4960176;28;91522;-78
2021/12/18 08:35:29;;;;;;;17.85;8.95;;;4.30;99.90;;;;;;4977199;28;89229;-78
2021/12/18 08:37:56;;;;;;;16.33;8.25;;;4.30;99.90;;;;;;4960831;28;92721;-81
2021/12/18 08:40:22;;;;;;;13.40;7.90;;;4.30;99.90;;;;;;4960165;28;89324;-79
2021/12/18 08:42:48;;;;;;;16.02;9.18;;;4.30;99.90;;;;;;4978501;28;89329;-78
2021/12/18 08:45:15;;;;;;;16.40;9.60;;;4.40;99.90;;;;;;4977161;28;89981;-78
2021/12/18 08:47:41;;;;;;;18.40;9.75;;;4.40;99.90;;;;;;4977919;28;89073;-78
2021/12/18 08:50:09;;;;;;;16.80;9.32;;;4.40;99.90;;;;;;4960443;28;89528;-78
2021/12/18 08:52:34;;;;;;;14.35;9.10;;;4.50;99.90;;;;;;4959925;28;91523;-78
2021/12/18 08:55:00;;;;;;;14.50;8.82;;;4.50;99.90;;;;;;4976385;28;90184;-78
2021/12/18 08:57:26;;;;;;;13.60;8.32;;;4.50;99.90;;;;;;4978728;28;90687;-79
2021/12/18 08:59:52;;;;;;;14.35;9.30;;;4.50;99.90;;;;;;4960342;28;89228;-79
2021/12/18 09:02:18;;;;;;;16.15;8.82;;;4.60;99.90;;;;;;4978645;28;89349;-78
2021/12/18 09:04:44;;;;;;;13.98;8.65;;;4.60;99.90;;;;;;4960158;28;91699;-79
2021/12/18 09:07:10;;;;;;;16.45;9.57;;;4.70;99.90;;;;;;4978250;28;89882;-79
2021/12/18 09:09:37;;;;;;;17.15;9.88;;;4.70;99.90;;;;;;4961150;28;89349;-78
2021/12/18 09:12:03;;;;;;;13.57;8.70;;;4.80;99.90;;;;;;4960712;28;92680;-77
2021/12/18 09:14:28;;;;;;;16.48;9.30;;;4.90;99.90;;;;;;4960377;28;91720;-78
2021/12/18 09:16:54;;;;;;;15.48;9.48;;;4.90;99.90;;;;;;4960478;28;92806;-77
2021/12/18 09:19:20;;;;;;;14.20;8.90;;;5.00;99.90;;;;;;4960095;28;90245;-78
2021/12/18 09:21:46;;;;;;;16.45;9.38;;;5.00;99.90;;;;;;4977423;28;90156;-77
2021/12/18 09:24:12;;;;;;;13.98;8.65;;;5.00;99.90;;;;;;4977278;28;89920;-77
2021/12/18 09:26:37;;;;;;;15.68;9.73;;;5.00;99.90;;;;;;4960103;28;91348;-78
2021/12/18 09:29:03;;;;;;;15.80;8.93;;;5.00;99.90;;;;;;4978940;28;89184;-78
2021/12/18 09:31:29;;;;;;;14.50;8.77;;;5.00;99.90;;;;;;4978327;28;89488;-77
2021/12/18 09:33:55;;;;;;;14.88;8.57;;;5.00;99.90;;;;;;4960179;28;91967;-77
2021/12/18 09:36:20;;;;;;;14.63;8.75;;;5.10;99.90;;;;;;4979172;28;89004;-78
2021/12/18 09:38:46;;;;;;;13.45;8.43;;;5.10;99.90;;;;;;4979761;28;89226;-77
2021/12/18 09:41:12;;;;;;;12.98;8.48;;;5.10;99.90;;;;;;4959651;28;92653;-77
2021/12/18 09:43:38;;;;;;;14.60;9.60;;;5.20;99.90;;;;;;4977150;28;90470;-78
2021/12/18 09:46:09;;;;;;;14.20;8.80;;;5.20;99.90;;;;;;4958833;28;93771;-78
2021/12/18 09:48:37;;;;;;;13.20;8.98;;;5.20;99.90;;;;;;4961146;28;89261;-78
2021/12/18 09:51:07;;;;;;;16.38;10.07;;;5.30;99.90;;;;;;4977070;28;89874;-78
2021/12/18 09:53:34;;;;;;;15.07;9.30;;;5.40;99.90;;;;;;4976596;28;91092;-79
2021/12/18 09:55:59;;;;;;;12.57;8.68;;;5.40;99.90;;;;;;4960400;28;91937;-78
2021/12/18 09:58:25;;;;;;;13.10;8.50;;;5.40;99.90;;;;;;4963471;28;89226;-78
2021/12/18 10:00:51;;;;;;;13.18;8.48;;;5.40;99.90;;;;;;4980752;28;89657;-77
2021/12/18 10:03:16;;;;;;;13.95;9.00;;;5.40;99.90;;;;;;4962715;28;91597;-77
2021/12/18 10:05:42;;;;;;;15.38;8.48;;;5.40;99.90;;;;;;4980530;28;90161;-78
2021/12/18 10:08:17;;;;;;;15.00;9.13;;;5.40;99.90;;;;;;4980261;28;90803;-78
2021/12/18 10:11:06;;;;;;;13.68;8.98;;;5.40;99.90;;;;;;4979966;28;92640;-78
2021/12/18 10:13:49;;;;;;;16.55;9.00;;;5.40;99.90;;;;;;4980101;28;90863;-77
2021/12/18 10:16:16;;;;;;;16.27;10.48;;;5.40;99.90;;;;;;4980524;28;89266;-78
2021/12/18 10:18:42;;;;;;;16.23;10.30;;;5.50;99.90;;;;;;4979636;28;89362;-78
2021/12/18 10:21:14;;;;;;;18.05;10.45;;;5.50;99.90;;;;;;4979487;28;89573;-77
2021/12/18 10:23:44;;;;;;;14.18;9.35;;;5.60;99.90;;;;;;4979750;28;89319;-77
2021/12/18 10:26:39;;;;;;;15.27;9.48;;;5.60;99.90;;;;;;4980682;28;90169;-77
2021/12/18 10:29:22;;;;;;;16.48;9.70;;;5.60;99.90;;;;;;4980028;28;89772;-78
2021/12/18 10:31:47;;;;;;;14.82;9.45;;;5.70;99.90;;;;;;4980143;28;90013;-78
2021/12/18 10:34:14;;;;;;;13.38;9.75;;;5.70;99.90;;;;;;4979680;28;91177;-77
2021/12/18 10:36:40;;;;;;;14.18;9.82;;;5.70;99.90;;;;;;4962250;28;93626;-77
2021/12/18 10:39:05;;;;;;;13.85;9.25;;;5.80;99.90;;;;;;4993210;28;89501;-77
2021/12/18 10:41:34;;;;;;;13.27;9.13;;;5.80;99.90;;;;;;4999542;28;89140;-77
2021/12/18 10:44:07;;;;;;;14.88;9.38;;;5.90;99.90;;;;;;4982467;28;89246;-78
2021/12/18 10:46:35;;;;;;;14.93;9.13;;;5.70;99.90;;;;;;4980058;28;89308;-78
2021/12/18 10:49:11;;;;;;;13.73;9.40;;;5.70;99.90;;;;;;4980101;28;89277;-77
2021/12/18 10:51:38;;;;;;;16.05;9.52;;;5.70;99.90;;;;;;4980426;28;88993;-77
2021/12/18 10:54:22;;;;;;;15.18;9.45;;;5.80;99.90;;;;;;4979375;28;90442;-77
2021/12/18 10:56:52;;;;;;;13.35;8.98;;;5.70;99.90;;;;;;4979805;28;90252;-77
2021/12/18 10:59:25;;;;;;;17.00;9.50;;;5.80;99.90;;;;;;4961689;28;90252;-77
2021/12/18 11:01:59;;;;;;;15.75;9.50;;;6.00;99.90;;;;;;4979279;28;89359;-77
2021/12/18 11:04:27;;;;;;;14.10;8.95;;;6.00;99.90;;;;;;4979326;28;90568;-78
2021/12/18 11:06:55;;;;;;;13.55;9.38;;;6.00;99.90;;;;;;4979312;28;90808;-77
2021/12/18 11:09:28;;;;;;;13.40;9.93;;;5.90;99.90;;;;;;4979623;28;89522;-77
2021/12/18 11:14:34;;;;;;;15.20;9.50;;;6.00;99.90;;;;;;4979064;28;90004;-78
2021/12/18 11:17:03;;;;;;;13.93;9.18;;;6.00;99.90;;;;;;4979570;28;90083;-78
2021/12/18 11:19:31;;;;;;;12.80;9.15;;;6.00;99.90;;;;;;4979334;28;89276;-77
2021/12/18 11:21:59;;;;;;;14.88;9.45;;;5.90;99.90;;;;;;4961142;28;91507;-77
2021/12/18 11:24:45;;;;;;;17.55;10.18;;;6.00;99.90;;;;;;4978221;28;92185;-78
2021/12/18 11:27:17;;;;;;;15.23;9.23;;;6.10;99.90;;;;;;4978671;28;90976;-77
2021/12/18 11:30:24;;;;;;;13.40;8.93;;;6.20;99.90;;;;;;4961902;28;89254;-78
2021/12/18 11:32:54;;;;;;;14.40;8.90;;;6.10;99.90;;;;;;4899619;28;90155;-77
2021/12/18 11:35:23;;;;;;;14.77;8.98;;;6.00;99.90;;;;;;4963592;28;89682;-77
2021/12/18 11:37:55;;;;;;;12.82;9.18;;;6.10;99.90;;;;;;4978887;28;89303;-78
2021/12/18 11:40:31;;;;;;;12.40;9.30;;;6.10;99.90;;;;;;4979138;28;89293;-78
2021/12/18 11:42:57;;;;;;;14.25;10.13;;;6.10;99.90;;;;;;4979450;28;89160;-78
2021/12/18 11:45:32;;;;;;;14.73;9.73;;;6.10;99.90;;;;;;4960138;28;92487;-78
2021/12/18 11:47:59;;;;;;;13.27;9.00;;;6.20;99.90;;;;;;4979275;28;90169;-77
2021/12/18 11:50:36;;;;;;;15.35;9.82;;;6.30;99.90;;;;;;4978244;28;90163;-77
2021/12/18 11:53:08;;;;;;;13.65;9.45;;;6.30;99.90;;;;;;4978696;28;89130;-78
2021/12/18 11:55:58;;;;;;;14.88;9.75;;;6.30;99.90;;;;;;4978394;28;90460;-78
2021/12/18 11:58:29;;;;;;;15.05;9.68;;;6.40;99.90;;;;;;4953645;28;92953;-78
2021/12/18 12:01:02;;;;;;;12.95;9.40;;;6.40;99.90;;;;;;4978498;28;89209;-77
2021/12/18 12:03:40;;;;;;;14.50;9.65;;;6.40;99.90;;;;;;4960807;28;93123;-78
2021/12/18 12:06:30;;;;;;;14.30;9.90;;;6.40;99.90;;;;;;4960753;28;93006;-78
2021/12/18 12:09:35;;;;;;;15.02;9.85;;;6.30;99.90;;;;;;4979031;28;90108;-78
2021/12/18 12:12:09;;;;;;;13.23;9.55;;;6.30;99.90;;;;;;4978696;28;89524;-77
2021/12/18 12:14:44;;;;;;;13.82;9.48;;;6.30;99.90;;;;;;4978073;28;89694;-78
2021/12/18 12:17:24;;;;;;;13.85;9.07;;;6.30;99.90;;;;;;4977993;28;90295;-77
2021/12/18 12:19:59;;;;;;;14.88;9.65;;;6.30;99.90;;;;;;4977398;28;91256;-78
2021/12/18 12:22:37;;;;;;;15.48;9.95;;;6.20;99.90;;;;;;4978323;28;89179;-78
2021/12/18 12:25:06;;;;;;;13.77;9.23;;;6.20;99.90;;;;;;4977907;28;89762;-77
2021/12/18 12:27:38;;;;;;;18.30;10.38;;;6.20;99.90;;;;;;4978538;28;89262;-78
2021/12/18 12:30:09;;;;;;;16.13;10.35;;;6.10;99.90;;;;;;4977791;28;90191;-77
2021/12/18 12:32:35;;;;;;;14.73;10.07;;;6.00;99.90;;;;;;4977629;28;89409;-78
2021/12/18 12:35:08;;;;;;;15.82;9.90;;;6.00;99.90;;;;;;4959854;28;91842;-78
2021/12/18 12:37:38;;;;;;;16.55;10.30;;;6.00;99.90;;;;;;4978285;28;89312;-78
2021/12/18 12:40:16;;;;;;;16.00;10.73;;;6.10;99.90;;;;;;4977236;28;89841;-78
2021/12/18 12:43:11;;;;;;;14.52;10.45;;;5.90;99.90;;;;;;4959449;28;90341;-77
2021/12/18 12:45:42;;;;;;;17.55;10.98;;;5.90;99.90;;;;;;4977186;28;90226;-78
2021/12/18 12:48:08;;;;;;;17.92;11.25;;;5.90;99.90;;;;;;4977428;28;90120;-78
2021/12/18 12:50:34;;;;;;;16.70;10.80;;;6.00;99.90;;;;;;4959291;28;91161;-78
2021/12/18 12:53:08;;;;;;;18.00;11.13;;;5.90;99.90;;;;;;4977581;28;89324;-78
2021/12/18 12:55:43;;;;;;;17.40;11.38;;;6.00;99.90;;;;;;4976961;28;89543;-78
2021/12/18 12:58:24;;;;;;;17.80;11.38;;;6.00;99.90;;;;;;4959640;28;91996;-78
2021/12/18 13:01:00;;;;;;;16.40;11.05;;;6.00;99.90;;;;;;4977042;28;89787;-78
2021/12/18 13:03:33;;;;;;;16.30;10.82;;;6.10;99.90;;;;;;4959496;28;89246;-77
2021/12/18 13:06:05;;;;;;;18.58;10.50;;;6.10;99.90;;;;;;4958915;28;91730;-78
2021/12/18 13:08:34;;;;;;;16.10;10.82;;;5.90;99.90;;;;;;4958803;28;93562;-77
2021/12/18 13:11:01;;;;;;;16.00;10.25;;;5.90;99.90;;;;;;4976694;28;90504;-77
2021/12/18 13:13:30;;;;;;;17.52;10.55;;;5.90;99.90;;;;;;4977355;28;89376;-77
2021/12/18 13:16:14;;;;;;;15.70;10.25;;;5.90;99.90;;;;;;4976703;28;89728;-78
2021/12/18 13:19:10;;;;;;;16.70;10.63;;;6.00;99.90;;;;;;4977100;28;89261;-78
2021/12/18 13:21:39;;;;;;;16.08;9.77;;;6.00;99.90;;;;;;4973776;28;89549;-77
2021/12/18 13:24:08;;;;;;;17.80;11.02;;;5.90;99.90;;;;;;4959573;28;89365;-77
2021/12/18 13:26:36;;;;;;;16.70;10.77;;;6.00;99.90;;;;;;4977264;28;88897;-77
2021/12/18 13:29:02;;;;;;;15.93;10.60;;;5.90;99.90;;;;;;4959224;28;91786;-78
2021/12/18 13:31:32;;;;;;;15.75;10.50;;;5.90;99.90;;;;;;4978538;28;89162;-78
2021/12/18 13:34:02;;;;;;;18.67;10.88;;;6.00;99.90;;;;;;4979694;28;90373;-78
2021/12/18 13:36:39;;;;;;;16.42;11.00;;;6.00;99.90;;;;;;4980244;28;89685;-77
2021/12/18 13:39:14;;;;;;;15.25;10.00;;;5.90;99.90;;;;;;4980250;28;90292;-78
2021/12/18 13:41:59;;;;;;;14.73;9.75;;;5.90;99.90;;;;;;4962121;28;92718;-78
2021/12/18 13:44:44;;;;;;;16.02;10.20;;;5.90;99.90;;;;;;4963057;28;89328;-78
2021/12/18 13:47:18;;;;;;;13.98;10.07;;;5.80;99.90;;;;;;4980284;28;89799;-78
2021/12/18 13:49:44;;;;;;;15.15;10.05;;;5.80;99.90;;;;;;5004551;28;89727;-78
2021/12/18 13:52:10;;;;;;;16.92;10.35;;;5.90;99.90;;;;;;4982268;28;91188;-77
2021/12/18 13:54:36;;;;;;;15.43;10.25;;;5.90;99.90;;;;;;4980389;28;89200;-78
2021/12/18 13:57:02;;;;;;;15.93;9.90;;;5.90;99.90;;;;;;4962277;28;92524;-78
2021/12/18 13:59:28;;;;;;;18.95;11.27;;;5.90;99.90;;;;;;4980128;28;90274;-78
2021/12/18 14:01:54;;;;;;;16.20;11.52;;;5.90;99.90;;;;;;4979647;28;89677;-78
2021/12/18 14:04:23;;;;;;;16.63;10.82;;;5.80;99.90;;;;;;4961770;28;89433;-77
2021/12/18 14:06:49;;;;;;;17.70;11.10;;;5.70;99.90;;;;;;4979831;28;89335;-78
2021/12/18 14:09:25;;;;;;;18.35;11.63;;;5.70;99.90;;;;;;4979944;28;89262;-78
2021/12/18 14:12:02;;;;;;;19.55;10.65;;;5.60;99.90;;;;;;4979359;28;90069;-78
2021/12/18 14:14:34;;;;;;;18.38;11.45;;;5.60;99.90;;;;;;4979778;28;89610;-78
2021/12/18 14:17:00;;;;;;;17.73;11.23;;;5.60;99.90;;;;;;4980053;28;89802;-77
2021/12/18 14:19:27;;;;;;;18.55;11.15;;;5.60;99.90;;;;;;4979610;28;90109;-77
2021/12/18 14:21:52;;;;;;;18.55;11.68;;;5.60;99.90;;;;;;4980106;28;89540;-77
2021/12/18 14:24:19;;;;;;;18.90;11.52;;;5.60;99.90;;;;;;4961208;28;90314;-78
2021/12/18 14:27:06;;;;;;;18.77;11.35;;;5.60;99.90;;;;;;4979583;28;89938;-77
2021/12/18 14:29:38;;;;;;;17.83;11.27;;;5.50;99.90;;;;;;4961579;28;91986;-77
2021/12/18 14:32:09;;;;;;;21.60;13.60;;;5.50;99.90;;;;;;4961427;28;92377;-77
2021/12/18 14:34:36;;;;;;;20.15;13.00;;;5.50;99.90;;;;;;4979192;28;89182;-78
2021/12/18 14:37:11;;;;;;;22.75;14.05;;;5.50;99.90;;;;;;4979462;28;89541;-77
2021/12/18 14:39:39;;;;;;;51.08;31.35;;;5.50;99.90;;;;;;4979548;28;89955;-77
2021/12/18 14:42:14;;;;;;;63.05;39.90;;;5.50;99.90;;;;;;4978610;28;89952;-78
2021/12/18 14:44:55;;;;;;;36.83;23.70;;;5.50;99.90;;;;;;4979291;28;89289;-78
2021/12/18 14:47:34;;;;;;;31.45;19.80;;;5.40;99.90;;;;;;4961554;28;92721;-78
2021/12/18 14:50:04;;;;;;;34.15;21.63;;;5.40;99.90;;;;;;4960645;28;94004;-77
2021/12/18 14:52:30;;;;;;;28.30;18.77;;;5.40;99.90;;;;;;4960988;28;92696;-78
2021/12/18 14:54:58;;;;;;;23.70;14.55;;;5.30;99.90;;;;;;4979276;28;89340;-77
2021/12/18 14:57:30;;;;;;;21.85;13.25;;;5.30;99.90;;;;;;4961207;28;92556;-77
2021/12/18 15:00:21;;;;;;;19.35;12.27;;;5.30;99.90;;;;;;4979031;28;90435;-77
2021/12/18 15:03:00;;;;;;;24.73;13.55;;;5.30;99.90;;;;;;4978927;28;89548;-78
2021/12/18 15:05:27;;;;;;;22.75;13.43;;;5.20;99.90;;;;;;4979106;28;89197;-77
2021/12/18 15:08:03;;;;;;;26.55;15.27;;;5.20;99.90;;;;;;4979384;28;89779;-78
2021/12/18 15:10:54;;;;;;;24.65;13.90;;;5.20;99.90;;;;;;4979054;28;89356;-77
2021/12/18 15:13:21;;;;;;;22.85;13.35;;;5.20;99.90;;;;;;4979005;28;89237;-77
2021/12/18 15:16:04;;;;;;;20.15;12.65;;;5.20;99.90;;;;;;4961395;28;90164;-77
2021/12/18 15:18:30;;;;;;;21.05;12.45;;;5.20;99.90;;;;;;4978898;28;90200;-78
2021/12/18 15:20:55;;;;;;;21.02;12.45;;;5.20;99.90;;;;;;4978654;28;90103;-77
2021/12/18 15:23:21;;;;;;;21.30;12.38;;;5.20;99.90;;;;;;4960905;28;91411;-77
2021/12/18 15:25:47;;;;;;;22.23;13.40;;;5.20;99.90;;;;;;4978875;28;89313;-77
2021/12/18 15:28:13;;;;;;;23.48;13.23;;;5.20;99.90;;;;;;4961212;28;89801;-77
2021/12/18 15:30:38;;;;;;;20.55;12.50;;;5.10;99.90;;;;;;4960871;28;92009;-78
2021/12/18 15:33:04;;;;;;;21.45;13.43;;;5.10;99.90;;;;;;4978993;28;89646;-77
2021/12/18 15:35:29;;;;;;;21.08;12.52;;;5.10;99.90;;;;;;4979269;28;89348;-77
2021/12/18 15:37:55;;;;;;;19.52;11.90;;;5.10;99.90;;;;;;4978523;28;89977;-78
2021/12/18 15:40:20;;;;;;;20.55;12.05;;;5.10;99.90;;;;;;4977800;28;91529;-77
2021/12/18 15:42:46;;;;;;;21.23;12.05;;;5.10;99.90;;;;;;4978076;28;90571;-78
2021/12/18 15:45:12;;;;;;;23.42;12.60;;;5.10;99.90;;;;;;4960524;28;89720;-77
2021/12/18 15:47:38;;;;;;;22.92;12.95;;;5.10;99.90;;;;;;4978314;28;89146;-78
2021/12/18 15:50:04;;;;;;;20.25;11.82;;;5.00;99.90;;;;;;4978269;28;89294;-78
2021/12/18 15:52:30;;;;;;;24.63;13.07;;;5.00;99.90;;;;;;4977627;28;91687;-76
2021/12/18 15:54:55;;;;;;;22.23;12.43;;;5.00;99.90;;;;;;4978000;28;89466;-76
2021/12/18 15:57:21;;;;;;;23.00;12.40;;;5.00;99.90;;;;;;4978499;28;89688;-76
2021/12/18 15:59:47;;;;;;;23.50;12.85;;;5.00;99.90;;;;;;4978309;28;90827;-76
2021/12/18 16:02:12;;;;;;;22.02;13.00;;;4.90;99.90;;;;;;4977611;28;90802;-76
2021/12/18 16:04:38;;;;;;;26.90;14.48;;;5.00;99.90;;;;;;4959775;28;90254;-76
2021/12/18 16:07:04;;;;;;;24.25;13.68;;;5.00;99.90;;;;;;4977892;28;90204;-76
2021/12/18 16:09:30;;;;;;;23.40;13.80;;;5.00;99.90;;;;;;4977790;28;89372;-76
2021/12/18 16:11:55;;;;;;;25.88;16.13;;;5.00;99.90;;;;;;4959916;28;92422;-76
2021/12/18 16:14:21;;;;;;;25.63;15.55;;;5.00;99.90;;;;;;4978207;28;89228;-75
2021/12/18 16:16:48;;;;;;;24.95;15.10;;;5.00;99.90;;;;;;4959970;28;93062;-76
2021/12/18 16:19:13;;;;;;;25.08;14.30;;;5.00;99.90;;;;;;4977877;28;90119;-76
2021/12/18 16:21:39;;;;;;;24.27;14.77;;;5.00;99.90;;;;;;4977978;28;89733;-76
2021/12/18 16:24:05;;;;;;;24.95;14.27;;;5.00;99.90;;;;;;4977634;28;89591;-76
2021/12/18 16:26:30;;;;;;;23.50;14.00;;;5.00;99.90;;;;;;4977621;28;89222;-76
2021/12/18 16:28:59;;;;;;;26.48;15.13;;;5.00;99.90;;;;;;4977109;28;91399;-75
2021/12/18 16:31:25;;;;;;;22.00;13.35;;;5.00;99.90;;;;;;4977281;28;90786;-76
2021/12/18 16:33:50;;;;;;;23.58;13.30;;;5.00;99.90;;;;;;4977345;28;89332;-76
2021/12/18 16:36:18;;;;;;;25.17;13.82;;;5.00;99.90;;;;;;4977744;28;90138;-76
2021/12/18 16:38:46;;;;;;;22.55;13.93;;;5.00;99.90;;;;;;4977222;28;89191;-76
2021/12/18 16:41:14;;;;;;;26.92;13.75;;;5.00;99.90;;;;;;4977147;28;89826;-76
2021/12/18 16:43:40;;;;;;;26.60;14.80;;;4.90;99.90;;;;;;4959775;28;89683;-76
2021/12/18 16:46:08;;;;;;;24.83;13.50;;;4.90;99.90;;;;;;4977827;28;88964;-76
2021/12/18 16:48:34;;;;;;;28.20;14.68;;;4.90;99.90;;;;;;4977376;28;90552;-77
2021/12/18 16:50:59;;;;;;;26.23;14.48;;;4.90;99.90;;;;;;4976997;28;89685;-78
2021/12/18 16:53:25;;;;;;;27.50;15.20;;;4.90;99.90;;;;;;4977107;28;90121;-77
2021/12/18 16:55:51;;;;;;;24.52;14.45;;;4.90;99.90;;;;;;4959392;28;91837;-77
2021/12/18 16:58:17;;;;;;;22.73;13.70;;;4.90;99.90;;;;;;4959429;28;91840;-78
2021/12/18 17:00:43;;;;;;;25.48;14.52;;;4.90;99.90;;;;;;4978131;28;90028;-77
2021/12/18 17:03:09;;;;;;;25.17;14.23;;;4.90;99.90;;;;;;4992028;28;89153;-77
2021/12/18 17:05:39;;;;;;;24.10;15.23;;;4.90;99.90;;;;;;4969715;28;91652;-78
2021/12/18 17:08:05;;;;;;;25.83;15.02;;;4.80;99.90;;;;;;4959296;28;92710;-77
2021/12/18 17:10:31;;;;;;;28.63;15.02;;;4.80;99.90;;;;;;4959521;28;92644;-77
2021/12/18 17:12:57;;;;;;;27.55;15.38;;;4.80;99.90;;;;;;4960015;28;89446;-78
2021/12/18 17:15:22;;;;;;;26.80;15.10;;;4.80;99.90;;;;;;4977153;28;89132;-77
2021/12/18 17:17:48;;;;;;;27.85;15.30;;;4.80;99.90;;;;;;4976592;28;90588;-77
2021/12/18 17:20:14;;;;;;;29.45;14.57;;;4.80;99.90;;;;;;4976610;28;89675;-77
2021/12/18 17:22:40;;;;;;;24.98;14.95;;;4.80;99.90;;;;;;4977113;28;89265;-78